createdAt,value
2018-01-26T00:01:00.857Z,41.60
2018-01-26T00:03:29.495Z,41.60
2018-01-26T00:05:58.159Z,41.60
2018-01-26T00:08:26.162Z,41.60
2018-01-26T00:10:54.059Z,41.60
2018-01-26T00:13:22.742Z,41.60
2018-01-26T00:15:51.404Z,41.70
2018-01-26T00:18:19.250Z,41.50
2018-01-26T00:20:47.128Z,41.60
2018-01-26T00:23:15.026Z,41.60
2018-01-26T00:25:43.656Z,41.40
2018-01-26T00:28:11.705Z,41.30
2018-01-26T00:30:39.378Z,41.40
2018-01-26T00:33:07.023Z,41.50
2018-01-26T00:35:35.476Z,41.40
2018-01-26T00:38:03.178Z,41.40
2018-01-26T00:40:30.841Z,41.40
2018-01-26T00:42:58.543Z,41.30
2018-01-26T00:45:26.208Z,41.20
2018-01-26T00:47:53.916Z,41.20
2018-01-26T00:50:21.563Z,41.20
2018-01-26T00:52:50.028Z,41.20
2018-01-26T00:55:18.447Z,41.20
2018-01-26T00:57:46.120Z,41.10
2018-01-26T01:00:13.804Z,41.20
2018-01-26T01:02:41.458Z,41.30
2018-01-26T01:05:09.143Z,41.30
2018-01-26T01:07:36.796Z,41.40
2018-01-26T01:10:04.490Z,41.40
2018-01-26T01:12:32.950Z,41.50
2018-01-26T01:15:01.395Z,41.60
2018-01-26T01:17:29.055Z,41.50
2018-01-26T01:19:56.707Z,41.60
2018-01-26T01:22:24.367Z,41.50
2018-01-26T01:24:52.033Z,41.50
2018-01-26T01:27:19.689Z,41.60
2018-01-26T01:29:47.335Z,41.60
2018-01-26T01:32:14.991Z,41.60
2018-01-26T01:34:42.636Z,41.60
2018-01-26T01:37:11.097Z,41.80
2018-01-26T01:39:39.563Z,41.80
2018-01-26T01:42:07.214Z,41.70
2018-01-26T01:44:34.945Z,41.60
2018-01-26T01:47:02.625Z,41.70
2018-01-26T01:49:30.335Z,41.70
2018-01-26T01:51:58.818Z,41.70
2018-01-26T01:54:27.258Z,41.70
2018-01-26T01:56:54.904Z,41.70
2018-01-26T01:59:22.601Z,41.80
2018-01-26T02:01:51.047Z,41.70
2018-01-26T02:04:18.722Z,41.60
2018-01-26T02:06:46.435Z,41.60
2018-01-26T02:09:14.109Z,41.60
2018-01-26T02:11:41.788Z,41.60
2018-01-26T02:14:09.476Z,41.60
2018-01-26T02:16:37.131Z,41.60
2018-01-26T02:19:04.902Z,41.70
2018-01-26T02:21:32.692Z,41.80
2018-01-26T02:24:00.382Z,42.10
2018-01-26T02:26:28.048Z,41.80
2018-01-26T02:28:55.733Z,41.70
2018-01-26T02:31:23.486Z,41.70
2018-01-26T02:33:51.143Z,41.70
2018-01-26T02:36:18.850Z,41.70
2018-01-26T02:38:47.682Z,41.80
2018-01-26T02:41:15.375Z,41.80
2018-01-26T02:43:43.038Z,41.80
2018-01-26T02:46:10.689Z,41.80
2018-01-26T02:48:38.350Z,41.90
2018-01-26T02:51:06.007Z,41.90
2018-01-26T02:53:33.686Z,42.00
2018-01-26T02:56:01.358Z,42.00
2018-01-26T02:58:29.777Z,42.20
2018-01-26T03:00:57.446Z,42.20
2018-01-26T03:03:25.123Z,42.30
2018-01-26T03:05:52.979Z,42.30
2018-01-26T03:08:20.693Z,42.30
2018-01-26T03:10:49.145Z,42.30
2018-01-26T03:13:16.877Z,42.30
2018-01-26T03:15:44.749Z,42.90
2018-01-26T03:18:12.642Z,42.20
2018-01-26T03:20:41.091Z,42.20
2018-01-26T03:23:08.794Z,42.20
2018-01-26T03:25:37.233Z,42.20
2018-01-26T03:28:04.921Z,42.20
2018-01-26T03:30:32.622Z,42.20
2018-01-26T03:33:00.407Z,42.10
2018-01-26T03:35:28.117Z,42.00
2018-01-26T03:37:55.767Z,42.00
2018-01-26T03:40:23.475Z,42.00
2018-01-26T03:42:51.318Z,42.00
2018-01-26T03:45:19.202Z,41.90
2018-01-26T03:47:46.913Z,41.90
2018-01-26T03:50:14.637Z,41.90
2018-01-26T03:52:42.273Z,41.90
2018-01-26T03:55:09.960Z,41.80
2018-01-26T03:57:37.838Z,41.80
2018-01-26T04:00:05.555Z,41.80
2018-01-26T04:02:34.197Z,41.80
2018-01-26T04:05:01.874Z,41.80
2018-01-26T04:07:29.523Z,41.80
2018-01-26T04:09:57.386Z,41.80
2018-01-26T04:12:25.079Z,41.80
2018-01-26T04:14:53.505Z,42.00
2018-01-26T04:17:21.328Z,42.00
2018-01-26T04:19:49.209Z,42.00
2018-01-26T04:22:17.083Z,42.10
2018-01-26T04:24:44.754Z,42.20
2018-01-26T04:27:12.603Z,42.20
2018-01-26T04:29:40.368Z,42.30
2018-01-26T04:32:08.027Z,42.30
2018-01-26T04:34:35.754Z,42.20
2018-01-26T04:37:03.714Z,42.10
2018-01-26T04:39:32.157Z,42.10
2018-01-26T04:41:59.808Z,42.10
2018-01-26T04:44:27.485Z,42.10
2018-01-26T04:46:55.142Z,42.10
2018-01-26T04:49:22.799Z,42.00
2018-01-26T04:51:50.651Z,42.00
2018-01-26T04:54:18.427Z,41.90
2018-01-26T04:56:46.165Z,41.90
2018-01-26T04:59:13.835Z,41.80
2018-01-26T05:01:41.494Z,41.90
2018-01-26T05:04:09.158Z,41.70
2018-01-26T05:06:36.815Z,41.90
2018-01-26T05:09:04.562Z,41.90
2018-01-26T05:11:33.137Z,42.00
2018-01-26T05:14:01.066Z,41.90
2018-01-26T05:16:28.951Z,41.90
2018-01-26T05:18:57.391Z,41.90
2018-01-26T05:21:25.039Z,41.90
2018-01-26T05:23:52.744Z,41.80
2018-01-26T05:26:20.389Z,41.80
2018-01-26T05:28:48.207Z,41.80
2018-01-26T05:31:15.871Z,41.70
2018-01-26T05:33:43.510Z,41.60
2018-01-26T05:36:12.154Z,41.60
2018-01-26T05:38:39.845Z,41.60
2018-01-26T05:41:07.503Z,41.60
2018-01-26T05:43:35.373Z,41.70
2018-01-26T05:46:03.822Z,41.80
2018-01-26T05:48:31.722Z,41.70
2018-01-26T05:50:59.393Z,41.80
2018-01-26T05:53:27.830Z,41.80
2018-01-26T05:55:55.696Z,41.70
2018-01-26T05:58:23.558Z,41.70
2018-01-26T06:00:51.422Z,41.80
2018-01-26T06:03:19.321Z,41.80
2018-01-26T06:05:47.951Z,41.90
2018-01-26T06:08:16.580Z,42.00
2018-01-26T06:10:45.239Z,42.10
2018-01-26T06:13:13.165Z,42.00
2018-01-26T06:15:41.027Z,42.00
2018-01-26T06:18:09.014Z,42.10
2018-01-26T06:20:36.864Z,42.10
2018-01-26T06:23:04.724Z,42.10
2018-01-26T06:25:32.796Z,42.00
2018-01-26T06:28:00.516Z,42.00
2018-01-26T06:30:28.203Z,42.00
2018-01-26T06:32:56.638Z,42.00
2018-01-26T06:35:24.313Z,41.90
2018-01-26T06:37:51.958Z,41.90
2018-01-26T06:40:19.623Z,42.00
2018-01-26T06:42:48.110Z,41.90
2018-01-26T06:45:16.566Z,41.80
2018-01-26T06:47:44.228Z,41.70
2018-01-26T06:50:12.156Z,41.80
2018-01-26T06:52:39.978Z,41.70
2018-01-26T06:55:07.721Z,41.60
2018-01-26T06:57:35.376Z,41.60
2018-01-26T07:00:03.296Z,41.60
2018-01-26T07:02:31.728Z,41.60
2018-01-26T07:04:59.396Z,41.60
2018-01-26T07:07:27.056Z,41.60
2018-01-26T07:09:54.751Z,41.60
2018-01-26T07:12:22.408Z,41.60
2018-01-26T07:14:50.246Z,42.20
2018-01-26T07:17:18.136Z,41.70
2018-01-26T07:19:46.693Z,41.60
2018-01-26T07:22:14.574Z,41.60
2018-01-26T07:24:42.238Z,41.60
2018-01-26T07:27:09.885Z,41.60
2018-01-26T07:29:37.559Z,41.60
2018-01-26T07:32:05.222Z,41.60
2018-01-26T07:34:32.883Z,41.70
2018-01-26T07:37:00.555Z,41.70
2018-01-26T07:39:28.219Z,41.80
2018-01-26T07:41:56.635Z,41.70
2018-01-26T07:44:24.294Z,41.70
2018-01-26T07:46:51.966Z,41.70
2018-01-26T07:49:19.635Z,41.70
2018-01-26T07:51:47.462Z,41.70
2018-01-26T07:54:15.154Z,41.70
2018-01-26T07:56:43.017Z,41.60
2018-01-26T07:59:10.758Z,41.60
2018-01-26T08:01:38.409Z,41.60
2018-01-26T08:04:06.083Z,41.60
2018-01-26T08:06:33.749Z,41.60
2018-01-26T08:09:01.517Z,41.60
2018-01-26T08:11:29.239Z,41.60
2018-01-26T08:13:57.672Z,41.60
2018-01-26T08:16:25.306Z,41.60
2018-01-26T08:18:52.967Z,41.60
2018-01-26T08:21:20.635Z,41.60
2018-01-26T08:23:48.338Z,41.70
2018-01-26T08:26:17.492Z,41.80
2018-01-26T08:28:45.157Z,41.50
2018-01-26T08:31:12.832Z,41.60
2018-01-26T08:33:40.899Z,41.60
2018-01-26T08:36:08.598Z,41.60
2018-01-26T08:38:36.243Z,41.60
2018-01-26T08:41:03.903Z,41.60
2018-01-26T08:43:31.566Z,41.50
2018-01-26T08:45:59.235Z,41.50
2018-01-26T08:48:26.915Z,41.50
2018-01-26T08:50:55.339Z,41.60
2018-01-26T08:53:22.995Z,41.40
2018-01-26T08:55:50.734Z,41.50
2018-01-26T08:58:18.411Z,41.50
2018-01-26T09:00:46.091Z,41.50
2018-01-26T09:03:13.731Z,41.50
2018-01-26T09:05:41.843Z,41.50
2018-01-26T09:08:09.590Z,41.50
2018-01-26T09:10:37.244Z,41.50
2018-01-26T09:13:04.906Z,41.50
2018-01-26T09:15:32.581Z,41.60
2018-01-26T09:18:00.234Z,41.50
2018-01-26T09:20:27.886Z,41.50
2018-01-26T09:22:55.662Z,41.50
2018-01-26T09:25:23.821Z,41.50
2018-01-26T09:27:51.889Z,41.50
2018-01-26T09:30:19.551Z,41.50
2018-01-26T09:32:47.519Z,41.50
2018-01-26T09:35:15.240Z,41.50
2018-01-26T09:37:43.670Z,41.50
2018-01-26T09:40:11.335Z,41.50
2018-01-26T09:42:39.089Z,41.40
2018-01-26T09:45:06.780Z,41.40
2018-01-26T09:47:34.435Z,41.40
2018-01-26T09:50:02.077Z,41.30
2018-01-26T09:52:29.726Z,41.30
2018-01-26T09:54:57.764Z,41.30
2018-01-26T09:57:26.002Z,41.30
2018-01-26T09:59:54.124Z,41.40
2018-01-26T10:02:21.812Z,41.30
2018-01-26T10:04:49.560Z,41.30
2018-01-26T10:07:17.210Z,41.20
2018-01-26T10:09:44.867Z,41.20
2018-01-26T10:12:12.551Z,41.20
2018-01-26T10:14:40.487Z,41.20
2018-01-26T10:17:08.194Z,41.30
2018-01-26T10:19:35.869Z,41.30
2018-01-26T10:22:03.532Z,42.00
2018-01-26T10:24:31.181Z,41.80
2018-01-26T10:26:58.831Z,41.30
2018-01-26T10:29:26.477Z,41.20
2018-01-26T10:31:54.127Z,41.10
2018-01-26T10:34:21.796Z,41.10
2018-01-26T10:36:49.530Z,41.10
2018-01-26T10:39:17.195Z,41.00
2018-01-26T10:41:44.849Z,40.90
2018-01-26T10:44:12.575Z,40.90
2018-01-26T10:46:41.010Z,41.00
2018-01-26T10:49:08.677Z,40.90
2018-01-26T10:51:36.339Z,41.00
2018-01-26T10:54:03.983Z,41.10
2018-01-26T10:56:31.636Z,41.10
2018-01-26T10:58:59.777Z,41.10
2018-01-26T11:01:27.490Z,41.20
2018-01-26T11:03:55.145Z,41.20
2018-01-26T11:06:22.805Z,41.20
2018-01-26T11:08:50.542Z,41.30
2018-01-26T11:11:18.766Z,41.30
2018-01-26T11:13:46.485Z,41.40
2018-01-26T11:16:14.604Z,41.40
2018-01-26T11:18:42.810Z,41.30
2018-01-26T11:21:10.553Z,41.30
2018-01-26T11:23:38.978Z,41.50
2018-01-26T11:26:06.663Z,41.40
2018-01-26T11:28:34.302Z,41.50
2018-01-26T11:31:01.976Z,41.50
2018-01-26T11:33:29.650Z,41.60
2018-01-26T11:35:57.322Z,41.50
2018-01-26T11:38:24.989Z,41.60
2018-01-26T11:40:52.630Z,41.70
2018-01-26T11:43:20.324Z,41.70
2018-01-26T11:45:48.019Z,41.60
2018-01-26T11:48:15.667Z,41.80
2018-01-26T11:50:44.099Z,41.70
2018-01-26T11:53:11.759Z,41.70
2018-01-26T11:55:39.410Z,41.70
2018-01-26T11:58:07.104Z,41.70
2018-01-26T12:00:34.765Z,41.80
2018-01-26T12:03:02.426Z,41.90
2018-01-26T12:05:30.078Z,41.80
2018-01-26T12:07:57.732Z,41.80
2018-01-26T12:10:25.394Z,41.70
2018-01-26T12:12:53.144Z,41.70
2018-01-26T12:15:20.905Z,41.80
2018-01-26T12:17:48.554Z,41.80
2018-01-26T12:20:16.274Z,41.80
2018-01-26T12:22:44.693Z,41.70
2018-01-26T12:25:12.462Z,41.60
2018-01-26T12:27:40.182Z,41.60
2018-01-26T12:30:08.640Z,41.50
2018-01-26T12:32:37.065Z,42.20
2018-01-26T12:35:04.727Z,41.50
2018-01-26T12:37:32.408Z,41.60
2018-01-26T12:40:00.074Z,41.70
2018-01-26T12:42:27.822Z,41.70
2018-01-26T12:44:55.555Z,41.80
2018-01-26T12:47:23.194Z,41.80
2018-01-26T12:49:51.620Z,41.90
2018-01-26T12:52:19.322Z,41.90
2018-01-26T12:54:47.029Z,41.90
2018-01-26T12:57:14.686Z,42.00
2018-01-26T12:59:42.337Z,42.00
2018-01-26T13:02:10.405Z,42.00
2018-01-26T13:04:38.101Z,42.00
2018-01-26T13:07:05.769Z,42.00
2018-01-26T13:09:33.442Z,41.90
2018-01-26T13:12:01.284Z,41.90
2018-01-26T13:14:28.970Z,41.90
2018-01-26T13:16:56.676Z,41.90
2018-01-26T13:19:24.340Z,41.90
2018-01-26T13:21:52.878Z,41.90
2018-01-26T13:24:20.569Z,41.90
2018-01-26T13:26:49.010Z,41.90
2018-01-26T13:29:16.653Z,41.90
2018-01-26T13:31:44.317Z,41.90
2018-01-26T13:34:12.004Z,41.90
2018-01-26T13:36:39.694Z,41.90
2018-01-26T13:39:08.129Z,42.00
2018-01-26T13:41:35.799Z,42.00
2018-01-26T13:44:03.489Z,42.00
2018-01-26T13:46:31.928Z,41.90
2018-01-26T13:48:59.619Z,41.90
2018-01-26T13:51:28.100Z,41.90
2018-01-26T13:53:56.573Z,41.90
2018-01-26T13:56:25.019Z,41.90
2018-01-26T13:58:52.768Z,41.90
2018-01-26T14:01:20.458Z,41.90
2018-01-26T14:03:48.196Z,41.90
2018-01-26T14:06:15.907Z,41.80
2018-01-26T14:08:44.396Z,41.90
2018-01-26T14:11:12.906Z,41.90
2018-01-26T14:13:41.336Z,41.90
2018-01-26T14:16:09.129Z,41.90
2018-01-26T14:18:36.857Z,42.00
2018-01-26T14:21:04.611Z,42.00
2018-01-26T14:23:32.350Z,42.10
2018-01-26T14:26:00.025Z,42.10
2018-01-26T14:28:27.710Z,42.00
2018-01-26T14:30:56.151Z,42.00
2018-01-26T14:33:23.899Z,42.00
2018-01-26T14:35:51.585Z,42.00
2018-01-26T14:38:20.010Z,42.10
2018-01-26T14:40:47.793Z,42.20
2018-01-26T14:43:15.504Z,42.30
2018-01-26T14:45:43.350Z,42.50
2018-01-26T14:48:11.049Z,42.60
2018-01-26T14:50:39.488Z,42.70
2018-01-26T14:53:07.159Z,42.70
2018-01-26T14:55:34.853Z,42.70
2018-01-26T14:58:03.296Z,42.70
2018-01-26T15:00:30.977Z,42.60
2018-01-26T15:02:58.665Z,42.60
2018-01-26T15:05:26.349Z,42.60
2018-01-26T15:07:54.057Z,42.70
2018-01-26T15:10:21.744Z,42.70
2018-01-26T15:12:51.025Z,42.70
2018-01-26T15:15:18.849Z,42.70
2018-01-26T15:17:46.631Z,42.70
2018-01-26T15:20:14.406Z,42.70
2018-01-26T15:22:42.120Z,42.70
2018-01-26T15:25:10.559Z,42.70
2018-01-26T15:27:39.123Z,42.70
2018-01-26T15:30:06.773Z,42.60
2018-01-26T15:32:34.446Z,42.70
2018-01-26T15:35:02.158Z,42.70
2018-01-26T15:37:29.916Z,42.70
2018-01-26T15:39:57.617Z,42.70
2018-01-26T15:42:25.332Z,42.60
2018-01-26T15:44:53.748Z,42.60
2018-01-26T15:47:21.411Z,42.60
2018-01-26T15:49:49.924Z,42.70
2018-01-26T15:52:17.595Z,42.70
2018-01-26T15:54:46.048Z,42.80
2018-01-26T15:57:14.490Z,42.70
2018-01-26T15:59:42.188Z,42.70
2018-01-26T16:02:09.838Z,42.70
2018-01-26T16:04:37.562Z,42.70
2018-01-26T16:07:05.321Z,42.70
2018-01-26T16:09:33.028Z,42.80
2018-01-26T16:12:01.518Z,42.80
2018-01-26T16:14:30.120Z,42.80
2018-01-26T16:16:58.704Z,42.90
2018-01-26T16:19:28.111Z,43.00
2018-01-26T16:21:57.373Z,42.90
2018-01-26T16:24:25.986Z,42.90
2018-01-26T16:26:55.268Z,43.00
2018-01-26T16:29:23.733Z,43.00
2018-01-26T16:31:52.407Z,43.00
2018-01-26T16:34:20.914Z,43.00
2018-01-26T16:36:49.442Z,43.10
2018-01-26T16:39:17.893Z,43.10
2018-01-26T16:41:47.164Z,43.30
2018-01-26T16:44:15.662Z,43.20
2018-01-26T16:46:44.201Z,43.30
2018-01-26T16:49:12.715Z,43.30
2018-01-26T16:51:41.292Z,43.90
2018-01-26T16:54:09.887Z,43.30
2018-01-26T16:56:39.189Z,43.30
2018-01-26T16:59:08.467Z,43.40
2018-01-26T17:01:37.052Z,43.40
2018-01-26T17:04:05.567Z,43.50
2018-01-26T17:06:34.950Z,43.70
2018-01-26T17:09:04.425Z,43.70
2018-01-26T17:11:32.921Z,43.70
2018-01-26T17:14:01.512Z,43.80
2018-01-26T17:16:30.788Z,43.90
2018-01-26T17:18:59.359Z,43.90
2018-01-26T17:21:27.868Z,43.90
2018-01-26T17:23:56.446Z,43.90
2018-01-26T17:26:25.049Z,44.50
2018-01-26T17:28:54.355Z,43.70
2018-01-26T17:31:22.920Z,43.70
2018-01-26T17:33:52.215Z,43.70
2018-01-26T17:36:20.820Z,43.70
2018-01-26T17:38:49.499Z,43.70
2018-01-26T17:41:18.754Z,43.80
2018-01-26T17:43:47.327Z,43.70
2018-01-26T17:46:15.769Z,43.70
2018-01-26T17:48:44.331Z,43.70
2018-01-26T17:51:13.736Z,43.60
2018-01-26T17:53:43.017Z,43.60
2018-01-26T17:56:11.601Z,43.60
2018-01-26T17:58:40.198Z,43.60
2018-01-26T18:01:09.453Z,43.60
2018-01-26T18:03:37.954Z,43.50
2018-01-26T18:06:06.616Z,43.60
2018-01-26T18:08:35.115Z,43.50
2018-01-26T18:11:03.604Z,43.50
2018-01-26T18:13:32.381Z,43.50
2018-01-26T18:16:01.789Z,43.50
2018-01-26T18:18:30.398Z,43.40
2018-01-26T18:20:59.076Z,43.50
2018-01-26T18:23:28.362Z,43.40
2018-01-26T18:25:56.942Z,43.30
2018-01-26T18:28:25.501Z,43.30
2018-01-26T18:30:53.990Z,43.20
2018-01-26T18:33:22.583Z,43.10
2018-01-26T18:35:51.140Z,43.10
2018-01-26T18:38:19.654Z,43.20
2018-01-26T18:40:49.028Z,43.10
2018-01-26T18:43:17.629Z,43.10
2018-01-26T18:45:45.483Z,43.10
2018-01-26T18:48:13.210Z,43.10
2018-01-26T18:50:40.924Z,43.00
2018-01-26T18:53:09.472Z,42.90
2018-01-26T18:55:37.205Z,42.90
2018-01-26T18:58:04.950Z,42.80
2018-01-26T19:00:33.459Z,42.90
2018-01-26T19:03:01.193Z,42.80
2018-01-26T19:05:29.695Z,42.80
2018-01-26T19:07:57.435Z,42.70
2018-01-26T19:10:25.938Z,42.70
2018-01-26T19:12:53.686Z,42.60
2018-01-26T19:15:21.414Z,42.60
2018-01-26T19:17:49.789Z,42.70
2018-01-26T19:20:17.589Z,42.70
2018-01-26T19:22:46.048Z,42.70
2018-01-26T19:25:14.650Z,42.70
2018-01-26T19:27:42.399Z,42.70
2018-01-26T19:30:10.897Z,42.70
2018-01-26T19:32:38.578Z,42.70
2018-01-26T19:35:06.270Z,42.70
2018-01-26T19:37:33.997Z,42.60
2018-01-26T19:40:01.745Z,42.60
2018-01-26T19:42:29.423Z,42.70
2018-01-26T19:44:57.093Z,42.70
2018-01-26T19:47:24.819Z,42.70
2018-01-26T19:49:52.656Z,42.60
2018-01-26T19:52:20.355Z,42.50
2018-01-26T19:54:48.053Z,42.60
2018-01-26T19:57:16.452Z,42.50
2018-01-26T19:59:44.929Z,42.60
2018-01-26T20:02:13.520Z,42.60
2018-01-26T20:04:47.604Z,42.60
2018-01-26T20:07:30.445Z,42.60
2018-01-26T20:09:59.032Z,42.60
2018-01-26T20:12:27.594Z,42.60
2018-01-26T20:14:56.040Z,42.60
2018-01-26T20:17:24.678Z,42.70
2018-01-26T20:19:54.044Z,42.60
2018-01-26T20:22:22.565Z,42.50
2018-01-26T20:24:51.828Z,42.60
2018-01-26T20:27:19.613Z,42.50
2018-01-26T20:29:47.301Z,42.50
2018-01-26T20:32:19.674Z,42.40
2018-01-26T20:34:48.149Z,42.60
2018-01-26T20:37:16.636Z,42.60
2018-01-26T20:39:44.337Z,42.50
2018-01-26T20:42:12.048Z,42.60
2018-01-26T20:44:40.533Z,42.70
2018-01-26T20:47:09.261Z,42.60
2018-01-26T20:49:37.015Z,42.50
2018-01-26T20:52:04.755Z,42.70
2018-01-26T20:54:32.457Z,42.70
2018-01-26T20:57:00.228Z,42.60
2018-01-26T20:59:28.742Z,42.70
2018-01-26T21:01:57.219Z,42.70
2018-01-26T21:04:25.690Z,42.80
2018-01-26T21:06:53.396Z,42.70
2018-01-26T21:09:21.201Z,42.80
2018-01-26T21:11:48.921Z,42.80
2018-01-26T21:14:17.343Z,42.80
2018-01-26T21:16:45.133Z,42.90
2018-01-26T21:19:13.661Z,43.10
2018-01-26T21:21:41.383Z,43.10
2018-01-26T21:24:09.943Z,43.40
2018-01-26T21:26:38.465Z,43.40
2018-01-26T21:29:06.135Z,43.60
2018-01-26T21:31:33.864Z,43.80
2018-01-26T21:34:02.272Z,44.10
2018-01-26T21:36:29.937Z,44.10
2018-01-26T21:38:57.726Z,44.10
2018-01-26T21:41:25.362Z,44.00
2018-01-26T21:43:53.078Z,43.80
2018-01-26T21:46:21.483Z,43.90
2018-01-26T21:48:49.446Z,43.80
2018-01-26T21:51:17.118Z,43.90
2018-01-26T21:53:44.777Z,44.00
2018-01-26T21:56:12.464Z,44.10
2018-01-26T21:58:40.140Z,44.10
2018-01-26T22:01:07.789Z,44.20
2018-01-26T22:03:35.444Z,44.20
2018-01-26T22:06:08.799Z,44.30
2018-01-26T22:08:37.274Z,44.30
2018-01-26T22:11:05.706Z,44.30
2018-01-26T22:13:33.357Z,44.30
2018-01-26T22:16:01.020Z,44.30
2018-01-26T22:18:28.702Z,44.30
2018-01-26T22:20:56.360Z,44.40
2018-01-26T22:23:24.104Z,44.40
2018-01-26T22:25:51.767Z,44.50
2018-01-26T22:28:19.418Z,44.50
2018-01-26T22:30:47.086Z,44.60
2018-01-26T22:33:14.728Z,44.60
2018-01-26T22:35:42.430Z,44.70
2018-01-26T22:38:10.076Z,44.80
2018-01-26T22:40:37.724Z,44.80
2018-01-26T22:43:05.387Z,44.90
2018-01-26T22:45:33.022Z,44.90
2018-01-26T22:48:00.669Z,45.00
2018-01-26T22:50:29.406Z,44.90
2018-01-26T22:52:57.069Z,44.80
2018-01-26T22:55:24.757Z,44.80
2018-01-26T22:57:52.482Z,45.50
2018-01-26T23:00:20.223Z,44.90
2018-01-26T23:02:47.903Z,44.90
2018-01-26T23:05:15.646Z,44.80
2018-01-26T23:07:43.286Z,44.80
2018-01-26T23:10:11.750Z,44.80
2018-01-26T23:12:40.204Z,44.90
2018-01-26T23:15:07.878Z,44.80
2018-01-26T23:17:35.520Z,44.90
2018-01-26T23:20:03.192Z,45.00
2018-01-26T23:22:30.864Z,45.00
2018-01-26T23:24:59.277Z,45.10
2018-01-26T23:27:26.934Z,45.00
2018-01-26T23:29:54.586Z,45.00
2018-01-26T23:32:22.997Z,45.00
2018-01-26T23:34:50.668Z,44.90
2018-01-26T23:37:18.322Z,45.00
2018-01-26T23:39:45.986Z,45.00
2018-01-26T23:42:13.626Z,44.90
2018-01-26T23:44:41.279Z,45.00
2018-01-26T23:47:09.080Z,45.10
2018-01-26T23:49:36.733Z,45.10
2018-01-26T23:52:04.411Z,45.10
2018-01-26T23:54:32.074Z,45.00
2018-01-26T23:56:59.811Z,45.00
2018-01-26T23:59:27.485Z,45.00
